createdAt,value
2018-12-03T00:00:51.277Z,14.00
2018-12-03T00:01:51.236Z,14.20
2018-12-03T00:02:51.200Z,13.90
2018-12-03T00:03:51.164Z,14.10
2018-12-03T00:04:51.145Z,13.60
2018-12-03T00:05:51.099Z,13.50
2018-12-03T00:07:41.381Z,14.20
2018-12-03T00:08:41.432Z,13.90
2018-12-03T00:09:41.307Z,13.80
2018-12-03T00:10:41.353Z,14.60
2018-12-03T00:11:41.418Z,14.30
2018-12-03T00:13:27.180Z,15.20
2018-12-03T00:14:27.154Z,13.80
2018-12-03T00:15:27.132Z,13.50
2018-12-03T00:16:27.083Z,14.50
2018-12-03T00:17:27.118Z,13.60
2018-12-03T00:18:27.123Z,14.40
2018-12-03T00:19:26.988Z,14.70
2018-12-03T00:21:13.530Z,14.60
2018-12-03T00:22:13.527Z,14.50
2018-12-03T00:24:07.170Z,14.70
2018-12-03T00:25:07.242Z,15.10
2018-12-03T00:27:02.435Z,14.20
2018-12-03T00:28:02.447Z,14.40
2018-12-03T00:29:02.415Z,14.00
2018-12-03T00:30:02.264Z,14.50
2018-12-03T00:31:02.338Z,14.10
2018-12-03T00:32:02.240Z,14.00
2018-12-03T00:33:02.260Z,13.50
2018-12-03T00:34:02.207Z,15.60
2018-12-03T00:35:02.195Z,14.20
2018-12-03T00:36:02.127Z,14.60
2018-12-03T00:37:02.209Z,14.70
2018-12-03T00:38:02.026Z,14.50
2018-12-03T00:39:02.067Z,15.20
2018-12-03T00:40:01.975Z,15.10
2018-12-03T00:41:52.648Z,16.10
2018-12-03T00:42:52.611Z,15.30
2018-12-03T00:43:52.568Z,14.70
2018-12-03T00:44:52.543Z,14.90
2018-12-03T00:45:52.525Z,13.90
2018-12-03T00:46:52.469Z,14.90
2018-12-03T00:47:52.482Z,14.40
2018-12-03T00:48:52.408Z,14.20
2018-12-03T00:49:52.415Z,14.30
2018-12-03T00:50:52.360Z,14.20
2018-12-03T00:51:38.259Z,14.60
2018-12-03T00:52:38.220Z,13.60
2018-12-03T00:53:38.316Z,14.10
2018-12-03T00:54:38.176Z,13.20
2018-12-03T00:55:38.268Z,12.70
2018-12-03T00:56:38.134Z,12.60
2018-12-03T00:57:38.125Z,13.80
2018-12-03T00:58:38.142Z,12.90
2018-12-03T01:00:35.227Z,14.20
2018-12-03T01:15:50.273Z,12.40
2018-12-03T01:16:50.384Z,12.90
2018-12-03T01:17:50.194Z,13.40
2018-12-03T01:19:06.627Z,12.60
2018-12-03T01:19:50.022Z,12.30
2018-12-03T01:39:12.523Z,14.20
2018-12-03T01:40:09.322Z,10.90
2018-12-03T01:41:11.289Z,10.70
2018-12-03T01:42:09.308Z,12.00
2018-12-03T01:43:09.171Z,11.10
2018-12-03T01:44:32.866Z,10.90
2018-12-03T01:45:32.677Z,10.50
2018-12-03T01:46:32.602Z,9.90
2018-12-03T01:47:33.598Z,10.30
2018-12-03T01:55:27.896Z,11.70
2018-12-03T02:02:22.811Z,11.10
2018-12-03T02:04:22.934Z,8.50
2018-12-03T02:32:47.820Z,9.10
2018-12-03T02:33:47.508Z,8.10
2018-12-03T02:34:56.416Z,8.80
2018-12-03T02:35:47.481Z,8.60
2018-12-03T02:36:47.423Z,9.20
2018-12-03T02:37:47.325Z,8.70
2018-12-03T02:38:47.604Z,9.30
2018-12-03T02:39:47.224Z,10.70
2018-12-03T02:46:41.830Z,13.80
2018-12-03T02:47:42.655Z,12.30
2018-12-03T02:50:04.339Z,14.60
2018-12-03T02:51:01.037Z,12.90
2018-12-03T02:52:00.904Z,12.60
2018-12-03T02:53:00.871Z,12.10
2018-12-03T02:54:00.900Z,11.90
2018-12-03T02:55:00.841Z,12.40
2018-12-03T02:56:48.191Z,13.30
2018-12-03T02:57:48.069Z,12.60
2018-12-03T02:58:48.020Z,11.70
2018-12-03T02:59:47.971Z,12.10
2018-12-03T03:00:48.015Z,11.10
2018-12-03T03:17:37.932Z,8.90
2018-12-03T03:18:46.624Z,8.40
2018-12-03T03:19:37.694Z,8.30
2018-12-03T03:51:47.800Z,8.10
2018-12-03T03:56:02.467Z,8.10
2018-12-03T03:56:58.384Z,7.30
2018-12-03T04:19:38.916Z,6.40
2018-12-03T04:20:38.591Z,6.40
2018-12-03T04:22:06.376Z,5.90
2018-12-03T04:22:38.828Z,5.30
2018-12-03T04:23:38.532Z,5.80
2018-12-03T04:36:06.930Z,4.30
2018-12-03T04:37:06.996Z,3.60
2018-12-03T04:38:06.772Z,3.10
2018-12-03T04:39:06.828Z,3.20
2018-12-03T04:40:06.730Z,2.50
2018-12-03T04:41:07.726Z,2.80
2018-12-03T04:42:06.777Z,2.80
2018-12-03T04:44:05.357Z,2.90
2018-12-03T04:45:06.455Z,2.40
2018-12-03T04:47:30.064Z,5.20
2018-12-03T04:48:31.124Z,2.50
2018-12-03T04:49:29.989Z,2.40
2018-12-03T04:50:29.972Z,2.30
2018-12-03T04:51:29.945Z,1.90
2018-12-03T04:52:30.948Z,2.70
2018-12-03T04:53:29.893Z,2.80
2018-12-03T04:54:30.886Z,2.60
2018-12-03T04:55:29.829Z,2.40
2018-12-03T04:56:29.889Z,2.60
2018-12-03T04:57:29.750Z,2.40
2018-12-03T05:01:05.207Z,5.60
2018-12-03T05:02:02.960Z,2.90
2018-12-03T05:03:29.655Z,6.50
2018-12-03T05:04:29.699Z,3.10
2018-12-03T05:05:29.602Z,3.10
2018-12-03T05:06:29.625Z,3.20
2018-12-03T05:07:29.523Z,2.50
2018-12-03T05:08:29.505Z,2.80
2018-12-03T05:09:29.465Z,3.00
2018-12-03T05:10:29.519Z,3.00
2018-12-03T05:11:29.418Z,3.60
2018-12-03T05:12:29.488Z,2.70
2018-12-03T05:13:29.341Z,3.10
2018-12-03T05:14:30.381Z,3.10
2018-12-03T05:15:29.298Z,3.70
2018-12-03T05:16:43.924Z,3.40
2018-12-03T05:18:29.035Z,7.30
2018-12-03T05:19:29.081Z,3.60
2018-12-03T05:20:28.951Z,3.40
2018-12-03T05:21:29.033Z,3.80
2018-12-03T05:22:28.913Z,3.90
2018-12-03T05:23:28.995Z,3.80
2018-12-03T05:24:28.845Z,3.70
2018-12-03T05:25:28.835Z,4.50
2018-12-03T05:26:28.808Z,4.80
2018-12-03T05:27:28.756Z,4.20
2018-12-03T05:28:28.729Z,4.20
2018-12-03T05:29:30.571Z,5.00
2018-12-03T05:30:28.670Z,4.70
2018-12-03T05:31:28.724Z,5.00
2018-12-03T05:32:28.620Z,5.00
2018-12-03T05:33:29.707Z,5.10
2018-12-03T05:34:28.553Z,4.90
2018-12-03T05:35:28.549Z,4.50
2018-12-03T05:36:28.504Z,5.50
2018-12-03T05:37:28.562Z,5.20
2018-12-03T05:40:02.021Z,12.60
2018-12-03T05:41:01.910Z,5.80
2018-12-03T05:42:02.009Z,5.80
2018-12-03T05:43:01.929Z,6.00
2018-12-03T05:44:01.966Z,6.70
2018-12-03T05:45:01.788Z,6.60
2018-12-03T05:56:35.670Z,10.30
2018-12-03T05:57:36.671Z,9.00
2018-12-03T06:01:36.502Z,10.90
2018-12-03T06:02:36.419Z,8.60
2018-12-03T06:03:44.695Z,8.90
2018-12-03T06:04:36.365Z,8.50
2018-12-03T06:05:37.443Z,8.90
2018-12-03T06:06:36.307Z,8.30
2018-12-03T06:07:36.331Z,9.00
2018-12-03T06:08:36.262Z,8.90
2018-12-03T06:09:42.905Z,8.90
2018-12-03T06:10:36.186Z,8.70
2018-12-03T06:11:38.198Z,9.80
2018-12-03T06:12:36.136Z,9.70
2018-12-03T06:14:53.448Z,10.10
2018-12-03T06:15:54.517Z,9.60
2018-12-03T06:16:53.417Z,9.30
2018-12-03T06:17:55.613Z,9.50
2018-12-03T06:18:53.323Z,8.50
2018-12-03T06:19:54.411Z,8.90
2018-12-03T06:21:21.150Z,9.40
2018-12-03T06:22:21.102Z,8.30
2018-12-03T06:36:23.080Z,8.20
2018-12-03T06:37:25.067Z,7.50
2018-12-03T06:38:23.013Z,7.20
2018-12-03T06:39:24.057Z,7.30
2018-12-03T06:40:22.961Z,7.30
2018-12-03T06:42:22.889Z,6.30
2018-12-03T06:43:22.899Z,7.00
2018-12-03T06:44:38.841Z,6.70
2018-12-03T06:45:22.815Z,6.80
2018-12-03T06:46:30.860Z,6.80
2018-12-03T06:47:22.873Z,6.80
2018-12-03T06:48:22.782Z,7.00
2018-12-03T06:49:22.766Z,6.80
2018-12-03T06:50:24.736Z,7.10
2018-12-03T06:51:22.650Z,7.50
2018-12-03T06:52:22.700Z,7.90
2018-12-03T06:53:22.575Z,7.70
2018-12-03T07:16:07.600Z,7.90
2018-12-03T07:17:07.557Z,7.00
2018-12-03T07:18:22.275Z,6.50
2018-12-03T07:19:07.478Z,7.20
2018-12-03T07:20:37.378Z,7.10
2018-12-03T07:21:07.419Z,7.10
2018-12-03T07:22:07.415Z,8.20
2018-12-03T07:23:22.316Z,7.70
2018-12-03T07:24:07.356Z,7.50
2018-12-03T07:25:15.487Z,7.00
2018-12-03T07:26:07.285Z,7.30
2018-12-03T07:34:16.428Z,6.90
2018-12-03T07:35:37.360Z,6.30
2018-12-03T07:36:16.366Z,6.10
2018-12-03T07:37:40.314Z,5.80
2018-12-03T07:38:16.288Z,6.00
2018-12-03T07:39:37.260Z,5.60
2018-12-03T07:40:16.196Z,5.00
2018-12-03T07:44:05.107Z,6.00
2018-12-03T07:45:13.997Z,5.80
2018-12-03T07:46:05.146Z,5.30
2018-12-03T07:47:05.025Z,5.00
2018-12-03T07:48:05.281Z,5.50
2018-12-03T07:49:04.948Z,4.90
2018-12-03T07:50:04.921Z,5.20
2018-12-03T07:51:04.877Z,5.30
2018-12-03T07:52:04.854Z,5.70
2018-12-03T07:53:04.825Z,4.50
2018-12-03T07:54:04.805Z,5.90
2018-12-03T07:55:04.782Z,5.50
2018-12-03T07:56:04.758Z,5.30
2018-12-03T07:57:04.726Z,5.80
2018-12-03T07:58:04.667Z,5.20
2018-12-03T07:59:04.670Z,5.50
2018-12-03T08:00:04.640Z,5.60
2018-12-03T08:01:04.621Z,5.40
2018-12-03T08:02:04.551Z,4.90
2018-12-03T08:03:04.534Z,5.10
2018-12-03T08:04:50.706Z,5.70
2018-12-03T08:05:50.654Z,5.60
2018-12-03T08:06:50.642Z,5.00
2018-12-03T08:07:50.620Z,4.90
2018-12-03T08:08:50.577Z,5.40
2018-12-03T08:09:50.666Z,5.40
2018-12-03T08:10:50.520Z,4.90
2018-12-03T08:11:50.489Z,5.90
2018-12-03T08:12:50.450Z,5.20
2018-12-03T08:13:50.435Z,5.10
2018-12-03T08:14:50.408Z,5.20
2018-12-03T08:15:50.415Z,5.50
2018-12-03T08:16:50.369Z,5.70
2018-12-03T08:17:50.498Z,5.20
2018-12-03T08:18:50.299Z,5.70
2018-12-03T08:20:36.430Z,7.50
2018-12-03T08:21:36.333Z,5.30
2018-12-03T08:22:36.293Z,5.40
2018-12-03T08:23:36.269Z,5.30
2018-12-03T08:24:36.280Z,5.70
2018-12-03T08:25:36.347Z,5.20
2018-12-03T08:26:36.190Z,5.30
2018-12-03T08:27:36.254Z,5.00
2018-12-03T08:28:36.122Z,5.50
2018-12-03T08:29:36.122Z,5.70
2018-12-03T08:30:36.068Z,5.30
2018-12-03T08:32:22.523Z,6.40
2018-12-03T08:33:22.440Z,5.50
2018-12-03T08:34:22.382Z,5.00
2018-12-03T08:35:22.335Z,5.50
2018-12-03T08:36:22.355Z,5.00
2018-12-03T08:37:22.344Z,5.30
2018-12-03T08:38:22.274Z,5.30
2018-12-03T08:39:22.249Z,5.40
2018-12-03T08:40:13.011Z,8.60
2018-12-03T08:41:12.958Z,5.60
2018-12-03T08:42:12.848Z,5.80
2018-12-03T08:43:12.881Z,5.20
2018-12-03T08:44:13.549Z,5.10
2018-12-03T08:45:12.780Z,5.10
2018-12-03T08:46:12.746Z,4.90
2018-12-03T08:47:12.790Z,5.40
2018-12-03T08:48:12.671Z,4.80
2018-12-03T08:49:12.703Z,5.10
2018-12-03T08:50:12.635Z,5.30
2018-12-03T08:51:13.828Z,5.10
2018-12-03T08:52:12.628Z,5.70
2018-12-03T08:53:12.695Z,5.80
2018-12-03T08:54:12.517Z,5.40
2018-12-03T08:55:12.567Z,5.10
2018-12-03T08:56:12.474Z,5.80
2018-12-03T08:57:21.165Z,5.30
2018-12-03T09:01:57.403Z,8.60
2018-12-03T09:17:13.070Z,9.70
2018-12-03T09:18:34.021Z,5.30
2018-12-03T09:19:13.005Z,4.60
2018-12-03T09:20:15.078Z,5.40
2018-12-03T09:21:12.941Z,5.30
2018-12-03T09:22:14.993Z,5.50
2018-12-03T09:23:12.890Z,5.50
2018-12-03T09:24:19.799Z,5.60
2018-12-03T09:25:12.855Z,4.80
2018-12-03T09:26:12.921Z,5.70
2018-12-03T09:27:12.782Z,5.30
2018-12-03T09:28:21.375Z,5.00
2018-12-03T09:29:12.704Z,4.90
2018-12-03T09:30:28.329Z,5.80
2018-12-03T09:31:12.649Z,5.20
2018-12-03T09:32:19.328Z,4.60
2018-12-03T09:33:12.601Z,4.80
2018-12-03T09:34:12.633Z,5.50
2018-12-03T09:35:12.535Z,5.00
2018-12-03T09:36:40.131Z,6.60
2018-12-03T09:37:40.088Z,4.50
2018-12-03T09:38:55.827Z,4.50
2018-12-03T09:39:40.014Z,4.90
2018-12-03T09:40:46.764Z,4.80
2018-12-03T09:41:39.946Z,4.10
2018-12-03T09:42:40.024Z,4.90
2018-12-03T09:43:39.899Z,5.30
2018-12-03T09:44:41.933Z,4.70
2018-12-03T09:45:39.854Z,4.90
2018-12-03T09:47:04.907Z,4.60
2018-12-03T09:47:39.822Z,4.30
2018-12-03T09:48:39.828Z,5.00
2018-12-03T09:49:39.731Z,4.50
2018-12-03T09:50:40.762Z,5.30
2018-12-03T09:51:39.670Z,5.00
2018-12-03T09:52:39.732Z,4.30
2018-12-03T09:53:39.643Z,5.20
2018-12-03T09:54:39.703Z,4.60
2018-12-03T09:57:20.367Z,9.70
2018-12-03T09:58:20.255Z,4.80
2018-12-03T09:59:21.250Z,4.80
2018-12-03T10:00:20.189Z,4.30
2018-12-03T10:01:27.708Z,4.40
2018-12-03T10:02:20.115Z,4.70
2018-12-03T10:03:21.175Z,4.50
2018-12-03T10:04:20.103Z,4.40
2018-12-03T10:05:21.099Z,5.70
2018-12-03T10:06:20.004Z,4.80
2018-12-03T10:07:21.099Z,4.80
2018-12-03T10:08:19.960Z,4.30
2018-12-03T10:09:21.001Z,4.90
2018-12-03T10:10:19.895Z,5.10
2018-12-03T10:11:20.931Z,4.40
2018-12-03T10:12:19.844Z,4.70
2018-12-03T10:13:19.911Z,4.90
2018-12-03T10:14:19.790Z,4.90
2018-12-03T10:15:19.813Z,5.20
2018-12-03T10:16:19.715Z,5.00
2018-12-03T10:17:19.754Z,4.80
2018-12-03T10:18:19.673Z,5.30
2018-12-03T10:19:19.727Z,4.70
2018-12-03T10:20:19.611Z,5.10
2018-12-03T10:21:19.647Z,5.50
2018-12-03T10:22:19.561Z,5.40
2018-12-03T10:23:19.571Z,4.90
2018-12-03T10:24:19.487Z,5.00
2018-12-03T10:25:19.591Z,4.80
2018-12-03T10:26:19.431Z,4.90
2018-12-03T10:27:19.476Z,6.00
2018-12-03T10:28:19.384Z,5.20
2018-12-03T10:29:20.316Z,5.10
2018-12-03T10:30:19.315Z,5.00
2018-12-03T10:32:12.674Z,5.60
2018-12-03T10:33:14.724Z,5.90
2018-12-03T10:34:12.591Z,5.00
2018-12-03T10:35:12.691Z,5.00
2018-12-03T10:36:12.553Z,5.10
2018-12-03T10:37:12.519Z,5.20
2018-12-03T10:38:12.501Z,4.80
2018-12-03T10:39:12.511Z,4.40
2018-12-03T10:40:12.413Z,5.10
2018-12-03T10:41:12.402Z,5.20
2018-12-03T10:42:12.365Z,5.80
2018-12-03T10:43:12.336Z,6.20
2018-12-03T10:44:12.307Z,5.50
2018-12-03T10:45:12.333Z,5.60
2018-12-03T10:46:12.234Z,5.90
2018-12-03T10:47:12.259Z,5.90
2018-12-03T10:48:12.212Z,5.90
2018-12-03T10:49:12.259Z,4.90
2018-12-03T10:50:12.177Z,5.80
2018-12-03T10:51:12.189Z,4.80
2018-12-03T10:52:12.077Z,4.80
2018-12-03T10:53:58.789Z,6.60
2018-12-03T10:54:58.780Z,5.50
2018-12-03T10:55:58.665Z,5.40
2018-12-03T10:56:58.654Z,5.70
2018-12-03T10:57:58.692Z,5.50
2018-12-03T10:58:58.624Z,5.30
2018-12-03T10:59:58.614Z,7.00
2018-12-03T11:00:58.515Z,5.90
2018-12-03T11:01:58.515Z,5.90
2018-12-03T11:02:58.470Z,5.80
2018-12-03T11:03:58.517Z,6.10
2018-12-03T11:04:58.410Z,6.80
2018-12-03T11:05:58.448Z,5.60
2018-12-03T11:07:45.850Z,6.90
2018-12-03T11:08:45.850Z,5.80
2018-12-03T11:09:45.818Z,5.70
2018-12-03T11:10:46.808Z,6.20
2018-12-03T11:11:45.712Z,5.30
2018-12-03T11:12:46.769Z,5.10
2018-12-03T11:13:45.657Z,6.00
2018-12-03T11:14:45.682Z,6.00
2018-12-03T11:15:45.604Z,5.50
2018-12-03T11:16:45.614Z,6.30
2018-12-03T11:17:45.555Z,6.20
2018-12-03T11:18:45.684Z,6.10
2018-12-03T11:19:45.487Z,5.30
2018-12-03T11:21:32.706Z,6.90
2018-12-03T11:22:32.775Z,5.10
2018-12-03T11:23:34.601Z,5.60
2018-12-03T11:24:32.650Z,5.20
2018-12-03T11:25:32.582Z,5.60
2018-12-03T11:26:32.599Z,5.00
2018-12-03T11:27:32.536Z,5.20
2018-12-03T11:28:32.576Z,5.60
2018-12-03T11:29:32.459Z,4.20
2018-12-03T11:30:32.482Z,5.40
2018-12-03T11:31:32.426Z,5.10
2018-12-03T11:32:33.419Z,4.90
2018-12-03T11:33:32.346Z,5.60
2018-12-03T11:34:54.830Z,17.10
2018-12-03T11:35:54.780Z,4.80
2018-12-03T11:38:18.151Z,12.30
2018-12-03T11:39:18.029Z,6.30
2018-12-03T11:40:18.009Z,5.30
2018-12-03T11:41:18.019Z,5.80
2018-12-03T11:42:17.975Z,4.80
2018-12-03T11:43:18.025Z,5.30
2018-12-03T11:44:17.887Z,5.30
2018-12-03T11:45:17.929Z,5.40
2018-12-03T11:46:17.849Z,5.10
2018-12-03T11:47:17.757Z,8.80
2018-12-03T11:48:17.757Z,4.50
2018-12-03T11:49:17.654Z,4.80
2018-12-03T11:50:18.691Z,5.20
2018-12-03T11:51:17.597Z,4.80
2018-12-03T11:52:17.556Z,5.60
2018-12-03T11:53:18.394Z,5.20
2018-12-03T11:54:17.501Z,4.90
2018-12-03T11:56:17.697Z,5.90
2018-12-03T11:57:17.626Z,5.40
2018-12-03T11:58:17.653Z,5.30
2018-12-03T11:59:17.621Z,5.20
2018-12-03T12:00:17.538Z,5.30
2018-12-03T12:01:17.531Z,5.70
2018-12-03T12:02:17.538Z,5.70
2018-12-03T12:03:17.538Z,6.00
2018-12-03T12:04:17.448Z,5.80
2018-12-03T12:05:17.461Z,5.10
2018-12-03T12:07:15.813Z,10.20
2018-12-03T12:08:15.851Z,6.30
2018-12-03T12:09:20.858Z,6.50
2018-12-03T12:10:15.757Z,6.40
2018-12-03T12:11:15.689Z,5.40
2018-12-03T12:12:15.667Z,5.90
2018-12-03T12:14:01.692Z,7.40
2018-12-03T12:15:01.662Z,6.20
2018-12-03T12:16:01.596Z,5.80
2018-12-03T12:17:50.271Z,7.80
2018-12-03T12:18:50.358Z,7.10
2018-12-03T12:19:50.206Z,6.00
2018-12-03T12:20:50.224Z,5.40
2018-12-03T12:21:50.146Z,6.90
2018-12-03T12:22:50.140Z,5.90
2018-12-03T12:23:50.076Z,6.70
2018-12-03T12:24:50.152Z,6.90
2018-12-03T12:25:50.056Z,5.50
2018-12-03T12:26:50.062Z,5.70
2018-12-03T12:27:49.982Z,6.00
2018-12-03T12:28:50.994Z,5.50
2018-12-03T12:29:49.933Z,6.20
2018-12-03T12:30:51.015Z,6.30
2018-12-03T12:32:41.693Z,9.10
2018-12-03T12:33:41.736Z,5.70
2018-12-03T12:34:41.800Z,6.00
2018-12-03T12:35:41.639Z,6.20
2018-12-03T12:36:41.571Z,6.60
2018-12-03T12:37:41.532Z,6.50
2018-12-03T12:38:41.477Z,5.70
2018-12-03T12:39:41.629Z,5.60
2018-12-03T12:40:41.421Z,6.30
2018-12-03T12:41:41.442Z,5.60
2018-12-03T12:42:41.355Z,5.40
2018-12-03T12:43:41.360Z,5.70
2018-12-03T12:44:41.296Z,5.40
2018-12-03T12:45:41.270Z,6.10
2018-12-03T12:46:41.266Z,5.60
2018-12-03T12:48:30.269Z,7.10
2018-12-03T12:49:30.226Z,5.90
2018-12-03T12:50:36.988Z,6.70
2018-12-03T12:51:30.200Z,5.60
2018-12-03T12:52:30.174Z,5.70
2018-12-03T12:53:30.144Z,5.60
2018-12-03T12:54:31.268Z,5.40
2018-12-03T12:55:30.056Z,5.70
2018-12-03T12:56:31.106Z,5.40
2018-12-03T12:57:30.032Z,5.00
2018-12-03T12:59:35.344Z,8.10
2018-12-03T13:00:35.155Z,5.60
2018-12-03T13:01:37.212Z,5.50
2018-12-03T13:02:35.078Z,5.30
2018-12-03T13:03:43.754Z,5.30
2018-12-03T13:04:35.011Z,4.70
2018-12-03T13:05:37.189Z,4.70
2018-12-03T13:06:34.977Z,5.00
2018-12-03T13:07:36.056Z,5.10
2018-12-03T13:08:34.898Z,4.70
2018-12-03T13:09:37.057Z,4.50
2018-12-03T13:10:34.850Z,5.10
2018-12-03T13:11:21.415Z,4.80
2018-12-03T13:12:21.501Z,5.40
2018-12-03T13:13:21.373Z,4.70
2018-12-03T13:14:21.332Z,4.50
2018-12-03T13:15:21.286Z,5.40
2018-12-03T13:16:21.333Z,5.20
2018-12-03T13:17:21.233Z,4.90
2018-12-03T13:18:21.359Z,5.10
2018-12-03T13:19:21.182Z,5.60
2018-12-03T13:20:21.307Z,5.10
2018-12-03T13:21:21.130Z,4.50
2018-12-03T13:23:08.136Z,5.20
2018-12-03T13:24:08.125Z,5.00
2018-12-03T13:25:07.992Z,4.60
2018-12-03T13:26:07.967Z,4.00
2018-12-03T13:27:07.948Z,3.50
2018-12-03T13:28:07.936Z,4.90
2018-12-03T13:29:07.934Z,4.10
2018-12-03T13:30:08.062Z,4.40
2018-12-03T13:31:07.881Z,4.70
2018-12-03T13:32:08.009Z,4.90
2018-12-03T13:33:07.777Z,5.00
2018-12-03T13:34:08.029Z,4.50
2018-12-03T13:35:07.738Z,4.50
2018-12-03T13:36:07.919Z,4.20
2018-12-03T13:37:07.740Z,5.50
2018-12-03T13:38:07.800Z,5.30
2018-12-03T13:39:07.661Z,4.80
2018-12-03T13:40:54.117Z,5.40
2018-12-03T13:41:54.225Z,4.30
2018-12-03T13:42:53.999Z,4.60
2018-12-03T13:43:54.117Z,4.10
2018-12-03T13:44:53.936Z,4.70
2018-12-03T13:45:54.079Z,4.10
2018-12-03T13:47:40.081Z,4.80
2018-12-03T13:48:40.391Z,4.60
2018-12-03T13:49:40.063Z,4.00
2018-12-03T13:50:40.163Z,3.80
2018-12-03T13:51:39.992Z,4.30
2018-12-03T13:52:39.914Z,4.60
2018-12-03T13:53:39.955Z,4.70
2018-12-03T13:54:39.873Z,3.90
2018-12-03T13:55:39.980Z,4.70
2018-12-03T13:56:39.878Z,4.20
2018-12-03T13:57:40.012Z,4.30
2018-12-03T13:58:39.757Z,3.80
2018-12-03T13:59:39.924Z,4.10
2018-12-03T14:00:39.696Z,4.20
2018-12-03T14:01:39.711Z,4.60
2018-12-03T14:02:39.633Z,4.50
2018-12-03T14:03:39.834Z,4.50
2018-12-03T14:05:28.923Z,4.70
2018-12-03T14:06:28.914Z,3.50
2018-12-03T14:07:28.963Z,4.10
2018-12-03T14:08:28.842Z,4.30
2018-12-03T14:09:28.881Z,3.50
2018-12-03T14:10:28.761Z,3.90
2018-12-03T14:11:28.744Z,3.70
2018-12-03T14:12:28.791Z,4.20
2018-12-03T14:13:28.703Z,4.10
2018-12-03T14:14:28.863Z,3.30
2018-12-03T14:15:28.619Z,3.70
2018-12-03T14:16:29.791Z,3.90
2018-12-03T14:17:28.618Z,3.90
2018-12-03T14:18:15.412Z,6.20
2018-12-03T14:19:17.400Z,3.90
2018-12-03T14:20:15.317Z,4.30
2018-12-03T14:21:15.506Z,3.80
2018-12-03T14:22:15.282Z,4.10
2018-12-03T14:23:15.306Z,4.40
2018-12-03T14:24:15.221Z,3.70
2018-12-03T14:25:15.335Z,3.00
2018-12-03T14:26:15.142Z,4.10
2018-12-03T14:27:15.189Z,3.10
2018-12-03T14:28:15.107Z,3.80
2018-12-03T14:29:15.123Z,3.50
2018-12-03T14:30:15.028Z,3.50
2018-12-03T14:31:15.170Z,3.10
2018-12-03T14:32:14.988Z,4.30
2018-12-03T14:33:15.034Z,4.20
2018-12-03T14:34:10.214Z,9.60
2018-12-03T14:34:57.916Z,5.30
2018-12-03T14:35:57.569Z,3.80
2018-12-03T14:36:57.556Z,3.80
2018-12-03T14:37:57.540Z,3.50
2018-12-03T14:38:57.565Z,4.20
2018-12-03T14:39:57.449Z,3.30
2018-12-03T14:41:46.459Z,4.70
2018-12-03T14:42:46.416Z,4.00
2018-12-03T14:43:46.310Z,3.80
2018-12-03T14:44:46.365Z,4.10
2018-12-03T14:45:46.259Z,3.80
2018-12-03T14:46:46.297Z,3.40
2018-12-03T14:47:46.208Z,3.40
2018-12-03T14:48:46.297Z,4.30
2018-12-03T14:49:46.138Z,3.90
2018-12-03T14:50:46.181Z,4.00
2018-12-03T14:51:46.080Z,4.10
2018-12-03T14:53:39.426Z,5.80
2018-12-03T14:54:39.431Z,3.20
2018-12-03T14:55:39.334Z,4.00
2018-12-03T14:56:39.296Z,3.80
2018-12-03T14:57:40.369Z,3.70
2018-12-03T14:58:39.234Z,3.50
2018-12-03T14:59:39.202Z,3.60
2018-12-03T15:00:39.194Z,3.20
2018-12-03T15:01:39.169Z,3.70
2018-12-03T15:02:39.139Z,3.60
2018-12-03T15:03:39.115Z,3.50
2018-12-03T15:04:39.061Z,3.70
2018-12-03T15:05:39.040Z,3.70
2018-12-03T15:06:39.027Z,3.80
2018-12-03T15:07:39.108Z,3.20
2018-12-03T15:08:31.018Z,4.60
2018-12-03T15:09:31.171Z,3.60
2018-12-03T15:10:30.909Z,4.20
2018-12-03T15:11:30.904Z,4.00
2018-12-03T15:12:30.856Z,4.20
2018-12-03T15:13:30.821Z,3.70
2018-12-03T15:14:30.818Z,3.40
2018-12-03T15:15:30.798Z,3.10
2018-12-03T15:17:19.190Z,3.80
2018-12-03T15:18:19.124Z,3.70
2018-12-03T15:19:19.096Z,3.70
2018-12-03T15:20:19.124Z,3.70
2018-12-03T15:21:19.082Z,4.10
2018-12-03T15:22:19.103Z,3.70
2018-12-03T15:23:19.016Z,3.50
2018-12-03T15:24:18.959Z,4.30
2018-12-03T15:26:06.296Z,4.90
2018-12-03T15:27:06.174Z,3.70
2018-12-03T15:28:06.142Z,3.80
2018-12-03T15:29:06.124Z,3.40
2018-12-03T15:30:06.121Z,3.60
2018-12-03T15:31:06.092Z,3.50
2018-12-03T15:32:06.037Z,4.10
2018-12-03T15:33:06.108Z,3.90
2018-12-03T15:34:05.983Z,3.70
2018-12-03T15:35:06.035Z,4.40
2018-12-03T15:36:05.940Z,3.10
2018-12-03T15:37:29.759Z,17.60
2018-12-03T15:38:29.799Z,4.10
2018-12-03T15:39:29.743Z,3.80
2018-12-03T15:41:16.438Z,6.50
2018-12-03T15:42:16.324Z,4.20
2018-12-03T15:43:16.418Z,3.50
2018-12-03T15:44:16.266Z,4.00
2018-12-03T15:45:16.260Z,3.60
2018-12-03T15:46:16.215Z,3.50
2018-12-03T15:47:18.294Z,4.10
2018-12-03T15:49:30.160Z,6.90
2018-12-03T15:50:12.663Z,3.90
2018-12-03T15:52:45.770Z,14.20
2018-12-03T15:53:45.739Z,4.30
2018-12-03T15:54:45.768Z,3.80
2018-12-03T15:57:29.038Z,15.30
2018-12-03T15:58:27.893Z,4.20
2018-12-03T16:01:06.472Z,15.30
2018-12-03T16:02:05.314Z,3.90
2018-12-03T16:03:05.378Z,4.10
2018-12-03T16:04:05.224Z,4.80
2018-12-03T16:06:11.001Z,15.60
2018-12-03T16:07:10.946Z,4.70
2018-12-03T16:08:11.047Z,4.40
2018-12-03T16:09:10.896Z,4.60
2018-12-03T16:10:12.382Z,4.40
2018-12-03T16:11:11.203Z,4.20
2018-12-03T16:12:10.813Z,3.80
2018-12-03T16:13:17.562Z,4.80
2018-12-03T16:15:31.524Z,16.10
2018-12-03T16:16:31.607Z,4.10
2018-12-03T16:17:31.387Z,4.10
2018-12-03T16:18:31.334Z,4.20
2018-12-03T16:19:31.425Z,4.30
2018-12-03T16:21:17.469Z,5.80
2018-12-03T16:22:17.299Z,3.90
2018-12-03T16:23:17.310Z,4.00
2018-12-03T16:24:17.236Z,4.10
2018-12-03T16:25:17.216Z,3.60
2018-12-03T16:26:17.210Z,4.30
2018-12-03T16:27:17.181Z,4.10
2018-12-03T16:28:51.146Z,18.70
2018-12-03T16:29:51.025Z,4.30
2018-12-03T16:30:51.016Z,4.50
2018-12-03T16:31:50.988Z,3.90
2018-12-03T16:32:51.082Z,4.60
2018-12-03T16:33:50.903Z,3.90
2018-12-03T16:34:50.892Z,4.70
2018-12-03T16:35:50.853Z,4.50
2018-12-03T16:36:50.837Z,4.60
2018-12-03T16:37:50.806Z,4.50
2018-12-03T16:38:36.616Z,6.30
2018-12-03T16:39:36.471Z,4.80
2018-12-03T16:40:37.473Z,5.30
2018-12-03T16:41:36.394Z,4.10
2018-12-03T16:42:36.436Z,4.70
2018-12-03T16:43:36.464Z,4.70
2018-12-03T16:44:36.327Z,4.60
2018-12-03T16:45:36.376Z,5.30
2018-12-03T16:46:36.258Z,4.70
2018-12-03T16:47:36.289Z,5.60
2018-12-03T16:48:36.216Z,5.10
2018-12-03T16:50:22.876Z,7.00
2018-12-03T16:51:22.900Z,5.60
2018-12-03T16:52:22.805Z,4.40
2018-12-03T16:53:22.810Z,4.80
2018-12-03T16:54:23.876Z,4.80
2018-12-03T16:55:22.713Z,4.80
2018-12-03T16:56:23.752Z,5.20
2018-12-03T16:57:22.675Z,5.60
2018-12-03T16:58:22.622Z,4.60
2018-12-03T17:00:19.754Z,6.10
2018-12-03T17:01:19.726Z,5.10
2018-12-03T17:02:19.714Z,4.80
2018-12-03T17:03:19.650Z,4.80
2018-12-03T17:04:19.632Z,4.40
2018-12-03T17:05:19.723Z,4.70
2018-12-03T17:06:19.595Z,5.00
2018-12-03T17:07:19.532Z,4.40
2018-12-03T17:08:19.516Z,4.80
2018-12-03T17:09:05.986Z,5.30
2018-12-03T17:10:06.046Z,4.70
2018-12-03T17:10:52.671Z,6.20
2018-12-03T17:11:41.001Z,5.80
2018-12-03T17:12:40.854Z,4.10
2018-12-03T17:13:41.910Z,4.10
2018-12-03T17:14:40.760Z,5.20
2018-12-03T17:15:26.793Z,7.20
2018-12-03T17:16:26.689Z,5.00
2018-12-03T17:17:26.649Z,5.20
2018-12-03T17:18:26.617Z,5.20
2018-12-03T17:19:27.699Z,4.90
2018-12-03T17:20:26.557Z,4.50
2018-12-03T17:21:26.543Z,5.00
2018-12-03T17:22:26.597Z,5.10
2018-12-03T17:23:26.494Z,5.40
2018-12-03T17:25:12.244Z,7.60
2018-12-03T17:26:12.167Z,5.40
2018-12-03T17:27:12.075Z,5.30
2018-12-03T17:28:12.058Z,6.20
2018-12-03T17:29:12.030Z,5.50
2018-12-03T17:30:11.983Z,5.50
2018-12-03T17:31:11.951Z,5.60
2018-12-03T17:32:11.933Z,5.50
2018-12-03T17:33:11.894Z,5.60
2018-12-03T17:34:11.870Z,6.70
2018-12-03T17:35:11.953Z,6.40
2018-12-03T17:36:11.850Z,6.20
2018-12-03T17:37:11.782Z,6.70
2018-12-03T17:38:11.764Z,7.00
2018-12-03T17:39:11.749Z,6.60
2018-12-03T17:40:11.698Z,7.60
2018-12-03T17:41:11.770Z,7.20
2018-12-03T17:42:11.674Z,6.70
2018-12-03T17:43:11.618Z,6.90
2018-12-03T17:44:11.593Z,7.10
2018-12-03T17:45:11.569Z,6.90
2018-12-03T17:46:11.535Z,8.00
2018-12-03T17:47:11.578Z,7.50
2018-12-03T17:48:11.490Z,7.20
2018-12-03T17:49:11.497Z,8.20
2018-12-03T17:50:11.434Z,8.00
2018-12-03T17:52:01.653Z,11.00
2018-12-03T17:53:05.638Z,17.20
2018-12-03T17:54:05.617Z,8.30
2018-12-03T17:55:05.572Z,8.00
2018-12-03T17:56:05.565Z,8.20
2018-12-03T17:57:04.957Z,14.20
2018-12-03T17:58:04.919Z,8.50
2018-12-03T17:59:11.873Z,8.90
2018-12-03T18:00:04.887Z,9.30
2018-12-03T18:01:04.860Z,9.20
2018-12-03T18:03:10.577Z,13.90
2018-12-03T18:03:56.728Z,9.80
2018-12-03T18:04:56.598Z,8.70
2018-12-03T18:07:07.522Z,16.50
2018-12-03T18:08:07.552Z,9.00
2018-12-03T18:09:07.499Z,8.60
2018-12-03T18:10:08.498Z,7.90